Time;durP1;ratioP1;P1;durP2;ratioP2;P2;SDS_P1;SDS_P2;PMS_P1;PMS_P2;Temp;Humidity;BMP_temperature;BMP_pressure;BME280_temperature;BME280_humidity;BME280_pressure;Samples;Min_cycle;Max_cycle;Signal;HPM_P1;HPM_P2
2022/04/12 00:00:45;;;;;;;;;;;10.40;82.90;;;;;;5093678;28;19941;-69
2022/04/12 00:03:12;;;;;;;;;;;10.40;82.90;;;;;;5077827;28;20015;-68
2022/04/12 00:05:40;;;;;;;;;;;10.40;83.50;;;;;;5073210;28;19974;-67
2022/04/12 00:08:07;;;;;;;;;;;10.30;83.60;;;;;;5082322;28;20003;-68
2022/04/12 00:10:35;;;;;;;;;;;10.30;84.30;;;;;;5069491;28;19948;-69
2022/04/12 00:13:01;;;;;;;;;;;10.20;84.30;;;;;;5073277;28;19943;-69
2022/04/12 00:15:28;;;;;;;;;;;10.30;84.20;;;;;;5081212;28;19951;-68
2022/04/12 00:20:41;;;;;;;;;;;10.30;85.10;;;;;;5099515;28;19953;-68
2022/04/12 00:23:08;;;;;;;;;;;10.20;84.80;;;;;;5100170;28;19966;-70
2022/04/12 00:25:34;;;;;;;;;;;10.20;85.20;;;;;;5080118;28;19942;-68
2022/04/12 00:28:01;;;;;;;;;;;10.20;85.40;;;;;;5084617;28;19960;-69
2022/04/12 00:30:28;;;;;;;;;;;10.20;85.40;;;;;;5083903;28;19971;-68
2022/04/12 00:32:55;;;;;;;;;;;10.20;85.70;;;;;;5073181;28;19941;-70
2022/04/12 00:35:23;;;;;;;;;;;10.20;85.90;;;;;;5075332;28;19947;-69
2022/04/12 00:37:51;;;;;;;;;;;10.10;86.20;;;;;;5073340;28;20000;-69
2022/04/12 00:40:18;;;;;;;;;;;10.10;86.90;;;;;;5073807;28;20024;-69
2022/04/12 00:42:45;;;;;;;;;;;10.10;86.90;;;;;;5068930;28;20474;-69
2022/04/12 00:45:12;;;;;;;;;;;10.00;87.40;;;;;;5070451;28;20389;-69
2022/04/12 00:47:39;;;;;;;;;;;9.90;89.00;;;;;;5062212;28;21465;-68
2022/04/12 00:50:07;;;;;;;;;;;9.90;89.60;;;;;;5073797;28;19950;-68
2022/04/12 00:52:36;;;;;;;;;;;9.90;89.70;;;;;;5068886;28;19994;-68
2022/04/12 00:55:04;;;;;;;;;;;9.90;89.80;;;;;;5067742;28;20418;-68
2022/04/12 00:57:30;;;;;;;;;;;9.90;89.90;;;;;;5071004;28;19960;-68
2022/04/12 00:59:59;;;;;;;;;;;10.00;88.40;;;;;;5070152;28;20465;-71
2022/04/12 01:02:26;;;;;;;;;;;10.00;88.50;;;;;;5063309;28;19989;-69
2022/04/12 01:04:52;;;;;;;;;;;10.00;88.50;;;;;;5070483;28;19960;-68
2022/04/12 01:07:19;;;;;;;;;;;10.10;88.70;;;;;;5063315;28;19975;-68
2022/04/12 01:09:46;;;;;;;;;;;10.10;88.80;;;;;;5067443;28;19994;-69
2022/04/12 01:12:18;;;;;;;;;;;10.10;89.10;;;;;;5060476;28;19951;-67
2022/04/12 01:14:44;;;;;;;;;;;10.10;89.40;;;;;;5071717;28;20402;-68
2022/04/12 01:17:12;;;;;;;;;;;10.10;89.50;;;;;;5072087;28;19974;-68
2022/04/12 01:19:38;;;;;;;;;;;10.20;89.50;;;;;;5070663;28;19947;-68
2022/04/12 01:22:07;;;;;;;;;;;10.20;89.90;;;;;;5058965;28;19994;-68
2022/04/12 01:24:35;;;;;;;;;;;10.20;89.90;;;;;;5072628;28;19948;-69
2022/04/12 01:27:01;;;;;;;;;;;10.20;90.00;;;;;;5071677;28;19964;-68
2022/04/12 01:29:32;;;;;;;;;;;10.20;90.10;;;;;;5070755;28;19954;-68
2022/04/12 01:31:59;;;;;;;;;;;10.10;90.20;;;;;;5073000;28;20004;-69
2022/04/12 01:34:25;;;;;;;;;;;10.10;90.30;;;;;;5071538;28;20023;-67
2022/04/12 01:36:52;;;;;;;;;;;10.10;90.40;;;;;;5066057;28;19974;-69
2022/04/12 01:39:20;;;;;;;;;;;10.10;90.60;;;;;;5081906;28;19965;-69
2022/04/12 01:41:48;;;;;;;;;;;10.10;90.60;;;;;;5080655;28;19944;-68
2022/04/12 01:44:14;;;;;;;;;;;10.10;90.80;;;;;;5080696;28;19948;-68
2022/04/12 01:46:41;;;;;;;;;;;10.10;90.90;;;;;;5079084;28;19962;-68
2022/04/12 01:49:07;;;;;;;;;;;10.10;90.90;;;;;;5071426;28;20227;-68
2022/04/12 01:51:34;;;;;;;;;;;10.10;91.00;;;;;;5070293;28;19950;-69
2022/04/12 01:54:00;;;;;;;;;;;10.10;91.10;;;;;;5079189;28;19999;-68
2022/04/12 01:56:28;;;;;;;;;;;10.10;91.10;;;;;;5071647;28;19945;-69
2022/04/12 01:58:56;;;;;;;;;;;10.10;91.30;;;;;;5073565;28;19967;-69
2022/04/12 02:01:22;;;;;;;;;;;10.10;91.40;;;;;;5067905;28;20414;-69
2022/04/12 02:03:49;;;;;;;;;;;10.10;91.30;;;;;;5067801;28;19967;-68
2022/04/12 02:06:15;;;;;;;;;;;10.10;91.40;;;;;;5074117;28;20093;-68
2022/04/12 02:08:43;;;;;;;;;;;10.10;91.50;;;;;;5074069;28;19985;-68
2022/04/12 02:11:10;;;;;;;;;;;10.10;91.60;;;;;;5075189;28;20020;-69
2022/04/12 02:13:36;;;;;;;;;;;10.10;91.60;;;;;;5070196;28;19949;-67
2022/04/12 02:16:05;;;;;;;;;;;10.10;91.60;;;;;;5075583;28;19948;-69
2022/04/12 02:18:31;;;;;;;;;;;10.10;91.80;;;;;;5075665;28;19959;-68
2022/04/12 02:20:58;;;;;;;;;;;10.10;91.90;;;;;;5073077;28;20043;-69
2022/04/12 02:23:24;;;;;;;;;;;10.10;91.90;;;;;;5075636;28;20438;-69
2022/04/12 02:25:51;;;;;;;;;;;10.10;92.10;;;;;;5076215;28;20010;-67
2022/04/12 02:28:17;;;;;;;;;;;10.10;92.50;;;;;;5072104;28;19965;-67
2022/04/12 02:30:44;;;;;;;;;;;10.20;92.40;;;;;;5065405;28;19942;-68
2022/04/12 02:33:12;;;;;;;;;;;10.10;92.60;;;;;;5070130;28;19987;-68
2022/04/12 02:35:39;;;;;;;;;;;10.10;92.70;;;;;;5074170;28;19953;-68
2022/04/12 02:38:05;;;;;;;;;;;10.10;92.60;;;;;;5069427;28;19960;-68
2022/04/12 02:40:32;;;;;;;;;;;10.10;92.60;;;;;;5073729;28;19968;-68
2022/04/12 02:42:58;;;;;;;;;;;10.10;92.70;;;;;;5075760;28;19942;-68
2022/04/12 02:45:25;;;;;;;;;;;10.10;92.60;;;;;;5062292;28;19991;-69
2022/04/12 02:47:51;;;;;;;;;;;10.20;92.60;;;;;;5075436;28;20013;-69
2022/04/12 02:50:19;;;;;;;;;;;10.20;92.60;;;;;;5079178;28;19948;-69
2022/04/12 02:52:46;;;;;;;;;;;10.20;92.70;;;;;;5082317;28;19952;-69
2022/04/12 02:55:12;;;;;;;;;;;10.20;92.90;;;;;;5065923;28;19955;-68
2022/04/12 02:57:40;;;;;;;;;;;10.20;92.90;;;;;;5072291;28;20432;-68
2022/04/12 03:00:07;;;;;;;;;;;10.20;92.90;;;;;;5072508;28;19971;-69
2022/04/12 03:02:33;;;;;;;;;;;10.20;93.00;;;;;;5077792;28;20010;-68
2022/04/12 03:05:00;;;;;;;;;;;10.20;93.00;;;;;;5084783;28;19957;-68
2022/04/12 03:07:28;;;;;;;;;;;10.30;93.00;;;;;;5077429;28;20024;-68
2022/04/12 03:09:54;;;;;;;;;;;10.30;92.90;;;;;;5073032;28;20469;-70
2022/04/12 03:12:21;;;;;;;;;;;10.40;93.00;;;;;;5060956;28;19946;-69
2022/04/12 03:14:47;;;;;;;;;;;10.40;93.00;;;;;;5068959;28;19945;-68
2022/04/12 03:17:14;;;;;;;;;;;10.40;93.10;;;;;;5079295;28;19960;-68
2022/04/12 03:19:40;;;;;;;;;;;10.40;93.30;;;;;;5080462;28;19970;-68
2022/04/12 03:22:07;;;;;;;;;;;10.40;93.40;;;;;;5072938;28;19961;-68
2022/04/12 03:24:36;;;;;;;;;;;10.30;93.50;;;;;;5076899;28;19949;-68
2022/04/12 03:27:02;;;;;;;;;;;10.30;93.50;;;;;;5083131;28;19964;-68
2022/04/12 03:29:29;;;;;;;;;;;10.30;93.70;;;;;;5084662;28;20012;-69
2022/04/12 03:31:55;;;;;;;;;;;10.20;93.70;;;;;;5089202;28;19989;-68
2022/04/12 03:34:22;;;;;;;;;;;10.20;93.80;;;;;;5068700;28;19940;-69
2022/04/12 03:36:48;;;;;;;;;;;10.20;94.00;;;;;;5086001;28;19944;-69
2022/04/12 03:39:17;;;;;;;;;;;10.20;94.00;;;;;;5083071;28;19948;-72
2022/04/12 03:41:47;;;;;;;;;;;10.20;94.40;;;;;;5079890;28;19996;-69
2022/04/12 03:44:13;;;;;;;;;;;10.20;94.50;;;;;;5059746;28;19973;-68
2022/04/12 03:46:40;;;;;;;;;;;10.20;94.50;;;;;;5072549;28;19973;-69
2022/04/12 03:49:06;;;;;;;;;;;10.20;94.60;;;;;;5076132;28;19958;-68
2022/04/12 03:51:33;;;;;;;;;;;10.20;94.70;;;;;;5076115;28;20718;-68
2022/04/12 03:54:00;;;;;;;;;;;10.10;94.90;;;;;;5063847;28;20016;-69
2022/04/12 03:56:27;;;;;;;;;;;10.10;94.90;;;;;;5074260;28;20426;-68
2022/04/12 03:58:57;;;;;;;;;;;10.00;95.00;;;;;;5074529;28;20192;-69
2022/04/12 04:01:24;;;;;;;;;;;10.00;95.10;;;;;;5073824;28;20396;-67
2022/04/12 04:03:50;;;;;;;;;;;10.00;95.10;;;;;;5072245;28;20008;-67
2022/04/12 04:06:17;;;;;;;;;;;10.00;95.00;;;;;;5071474;28;19949;-69
2022/04/12 04:08:43;;;;;;;;;;;10.10;95.20;;;;;;5063119;28;19968;-66
2022/04/12 04:11:10;;;;;;;;;;;10.20;95.20;;;;;;5072220;28;19949;-67
2022/04/12 04:13:37;;;;;;;;;;;10.10;95.40;;;;;;5073433;28;20422;-68
2022/04/12 04:16:05;;;;;;;;;;;10.10;95.60;;;;;;5074903;28;19976;-68
2022/04/12 04:18:32;;;;;;;;;;;10.00;95.60;;;;;;5073420;28;19969;-68
2022/04/12 04:20:59;;;;;;;;;;;10.00;95.80;;;;;;5070200;28;19942;-68
2022/04/12 04:23:25;;;;;;;;;;;10.00;96.00;;;;;;5072154;28;19944;-67
2022/04/12 04:25:52;;;;;;;;;;;9.90;96.70;;;;;;5071982;28;20414;-68
2022/04/12 04:28:21;;;;;;;;;;;9.90;96.90;;;;;;5070726;28;19990;-66
2022/04/12 04:30:49;;;;;;;;;;;9.90;96.90;;;;;;5068660;28;19939;-67
2022/04/12 04:33:18;;;;;;;;;;;10.00;96.50;;;;;;5070456;28;19950;-66
2022/04/12 04:35:44;;;;;;;;;;;10.00;96.60;;;;;;5073074;28;20037;-67
2022/04/12 04:38:11;;;;;;;;;;;10.00;96.70;;;;;;5059213;28;19968;-67
2022/04/12 04:40:38;;;;;;;;;;;10.00;96.80;;;;;;5067358;28;19945;-67
2022/04/12 04:43:04;;;;;;;;;;;10.00;96.90;;;;;;5067685;28;19957;-68
2022/04/12 04:45:31;;;;;;;;;;;10.00;96.80;;;;;;5066606;28;19950;-68
2022/04/12 04:47:58;;;;;;;;;;;10.00;97.00;;;;;;5071829;28;19984;-67
2022/04/12 04:50:27;;;;;;;;;;;10.00;97.10;;;;;;5078121;28;19954;-67
2022/04/12 04:52:54;;;;;;;;;;;10.00;97.20;;;;;;5072330;28;19953;-68
2022/04/12 04:55:21;;;;;;;;;;;10.00;97.40;;;;;;5072830;28;20418;-68
2022/04/12 04:57:48;;;;;;;;;;;9.90;98.00;;;;;;5060928;28;19959;-67
2022/04/12 05:00:16;;;;;;;;;;;9.90;98.20;;;;;;5066398;28;19970;-68
2022/04/12 05:02:43;;;;;;;;;;;9.80;98.40;;;;;;5065797;28;19972;-70
2022/04/12 05:05:10;;;;;;;;;;;9.90;98.60;;;;;;5064524;28;19951;-67
2022/04/12 05:10:13;;;;;;;;;;;9.80;99.50;;;;;;5069148;28;19953;-66
2022/04/12 05:12:40;;;;;;;;;;;10.00;98.80;;;;;;5077117;28;20471;-67
2022/04/12 05:15:07;;;;;;;;;;;10.00;98.70;;;;;;5071588;28;19997;-71
2022/04/12 05:17:33;;;;;;;;;;;10.00;98.40;;;;;;5079872;28;19940;-71
2022/04/12 05:20:00;;;;;;;;;;;10.00;98.70;;;;;;5071563;28;20436;-72
2022/04/12 05:22:27;;;;;;;;;;;10.00;98.80;;;;;;5078532;28;20060;-71
2022/04/12 05:24:53;;;;;;;;;;;10.00;99.00;;;;;;5065693;28;20322;-72
2022/04/12 05:27:21;;;;;;;;;;;10.00;98.80;;;;;;5066647;28;19938;-72
2022/04/12 05:29:48;;;;;;;;;;;10.00;99.00;;;;;;5065636;28;20058;-71
2022/04/12 05:32:14;;;;;;;;;;;10.00;99.10;;;;;;5073962;28;20009;-73
2022/04/12 05:34:41;;;;;;;;;;;10.00;99.10;;;;;;5071666;28;20494;-70
2022/04/12 05:37:07;;;;;;;;;;;10.00;99.00;;;;;;5083721;28;20447;-70
2022/04/12 05:39:34;;;;;;;;;;;10.00;98.80;;;;;;5073159;28;20029;-70
2022/04/12 05:42:01;;;;;;;;;;;10.10;98.70;;;;;;5079337;28;20357;-70
2022/04/12 05:44:29;;;;;;;;;;;10.10;98.80;;;;;;5071950;28;19950;-70
2022/04/12 05:46:55;;;;;;;;;;;10.10;98.80;;;;;;5065179;28;19948;-70
2022/04/12 05:49:22;;;;;;;;;;;10.10;99.00;;;;;;5072273;28;19964;-70
2022/04/12 05:51:49;;;;;;;;;;;10.10;98.90;;;;;;5066304;28;19990;-70
2022/04/12 05:54:16;;;;;;;;;;;10.10;98.70;;;;;;5067285;28;20041;-71
2022/04/12 05:56:42;;;;;;;;;;;10.20;98.80;;;;;;5078254;28;20332;-70
2022/04/12 05:59:09;;;;;;;;;;;10.20;98.80;;;;;;5066721;28;19975;-70
2022/04/12 06:01:38;;;;;;;;;;;10.30;98.90;;;;;;5066436;28;19953;-70
2022/04/12 06:04:05;;;;;;;;;;;10.30;98.60;;;;;;5069570;28;19986;-70
2022/04/12 06:06:32;;;;;;;;;;;10.40;98.70;;;;;;5077080;28;20106;-70
2022/04/12 06:08:59;;;;;;;;;;;10.50;98.60;;;;;;5058713;28;19981;-70
2022/04/12 06:11:25;;;;;;;;;;;10.60;98.50;;;;;;5057198;28;20000;-70
2022/04/12 06:13:52;;;;;;;;;;;10.70;98.40;;;;;;5067296;28;20019;-70
2022/04/12 06:16:18;;;;;;;;;;;10.80;98.40;;;;;;5077370;28;20390;-70
2022/04/12 06:18:46;;;;;;;;;;;10.80;98.30;;;;;;5073929;28;20063;-71
2022/04/12 06:21:13;;;;;;;;;;;10.90;98.20;;;;;;5072597;28;19942;-69
2022/04/12 06:23:39;;;;;;;;;;;11.00;98.10;;;;;;5068885;28;19951;-70
2022/04/12 06:26:06;;;;;;;;;;;11.00;98.00;;;;;;5067968;28;19947;-70
2022/04/12 06:28:32;;;;;;;;;;;11.10;98.00;;;;;;5054281;28;19968;-70
2022/04/12 06:30:59;;;;;;;;;;;11.10;97.90;;;;;;5071101;28;20009;-70
2022/04/12 06:33:26;;;;;;;;;;;11.20;97.80;;;;;;5065427;28;19955;-70
2022/04/12 06:35:54;;;;;;;;;;;11.20;97.80;;;;;;5079271;28;20041;-70
2022/04/12 06:38:21;;;;;;;;;;;11.20;97.80;;;;;;5068554;28;20051;-70
2022/04/12 06:40:49;;;;;;;;;;;11.30;98.10;;;;;;5075952;28;20070;-70
2022/04/12 06:43:15;;;;;;;;;;;11.20;97.80;;;;;;5068064;28;20012;-71
2022/04/12 06:45:42;;;;;;;;;;;11.30;97.80;;;;;;5069479;28;19950;-71
2022/04/12 06:48:09;;;;;;;;;;;11.40;98.20;;;;;;5066305;28;20049;-70
2022/04/12 06:50:36;;;;;;;;;;;11.40;98.10;;;;;;5059659;28;19943;-70
2022/04/12 06:53:04;;;;;;;;;;;11.50;98.20;;;;;;5065062;28;20444;-70
2022/04/12 06:55:31;;;;;;;;;;;11.50;98.10;;;;;;5068819;28;20358;-70
2022/04/12 06:57:57;;;;;;;;;;;11.60;98.20;;;;;;5082906;28;19959;-70
2022/04/12 07:00:25;;;;;;;;;;;11.60;97.90;;;;;;5078165;28;19946;-71
2022/04/12 07:02:51;;;;;;;;;;;11.60;98.00;;;;;;5072986;28;20465;-70
2022/04/12 07:05:18;;;;;;;;;;;11.70;98.10;;;;;;5069812;28;20024;-71
2022/04/12 07:07:45;;;;;;;;;;;11.70;98.10;;;;;;5080458;28;20013;-70
2022/04/12 07:10:13;;;;;;;;;;;11.70;98.20;;;;;;5068598;28;19943;-70
2022/04/12 07:12:40;;;;;;;;;;;11.80;98.10;;;;;;5072233;28;19958;-71
2022/04/12 07:15:08;;;;;;;;;;;11.80;98.10;;;;;;5069133;28;20513;-70
2022/04/12 07:17:34;;;;;;;;;;;11.90;98.20;;;;;;5068872;28;19995;-70
2022/04/12 07:20:01;;;;;;;;;;;11.90;98.20;;;;;;5073616;28;20041;-70
2022/04/12 07:22:28;;;;;;;;;;;12.00;98.10;;;;;;5070231;28;19994;-70
2022/04/12 07:24:54;;;;;;;;;;;12.00;98.00;;;;;;5071214;28;19947;-70
2022/04/12 07:27:22;;;;;;;;;;;12.10;98.20;;;;;;5068882;28;19977;-70
2022/04/12 07:29:49;;;;;;;;;;;12.10;98.20;;;;;;5069724;28;19963;-71
2022/04/12 07:32:15;;;;;;;;;;;12.20;98.20;;;;;;5080194;28;19946;-71
2022/04/12 07:34:42;;;;;;;;;;;12.10;98.20;;;;;;5068308;28;20026;-71
2022/04/12 07:37:08;;;;;;;;;;;12.10;98.20;;;;;;5071799;28;20019;-70
2022/04/12 07:39:35;;;;;;;;;;;12.20;98.20;;;;;;5068337;28;20408;-71
2022/04/12 07:42:01;;;;;;;;;;;12.30;98.30;;;;;;5073311;28;19946;-70
2022/04/12 07:44:29;;;;;;;;;;;12.50;98.50;;;;;;5068820;28;19946;-71
2022/04/12 07:46:56;;;;;;;;;;;12.70;98.30;;;;;;5069895;28;19945;-70
2022/04/12 07:49:22;;;;;;;;;;;12.90;98.00;;;;;;5068369;28;19965;-70
2022/04/12 07:51:49;;;;;;;;;;;13.10;97.90;;;;;;5065954;28;19950;-70
2022/04/12 07:54:15;;;;;;;;;;;13.30;97.80;;;;;;5063763;28;20350;-70
2022/04/12 07:56:42;;;;;;;;;;;13.50;97.70;;;;;;5073889;28;19959;-70
2022/04/12 07:59:10;;;;;;;;;;;13.70;97.50;;;;;;5070078;28;20038;-70
2022/04/12 08:01:38;;;;;;;;;;;13.80;97.40;;;;;;5068203;28;19952;-70
2022/04/12 08:04:05;;;;;;;;;;;14.00;97.30;;;;;;5073314;28;20424;-70
2022/04/12 08:06:31;;;;;;;;;;;14.10;96.90;;;;;;5070238;28;19951;-70
2022/04/12 08:08:58;;;;;;;;;;;14.30;96.90;;;;;;5068336;28;19961;-70
2022/04/12 08:11:24;;;;;;;;;;;14.40;96.60;;;;;;5068687;28;19962;-70
2022/04/12 08:13:51;;;;;;;;;;;14.50;96.70;;;;;;5072022;28;19944;-70
2022/04/12 08:16:17;;;;;;;;;;;14.50;96.30;;;;;;5080324;28;19947;-70
2022/04/12 08:18:45;;;;;;;;;;;14.60;96.20;;;;;;5070175;28;20041;-71
2022/04/12 08:21:12;;;;;;;;;;;14.70;96.10;;;;;;5073077;28;19946;-71
2022/04/12 08:23:38;;;;;;;;;;;14.90;95.90;;;;;;5077825;28;19946;-71
2022/04/12 08:26:05;;;;;;;;;;;15.10;95.90;;;;;;5068987;28;19938;-70
2022/04/12 08:28:32;;;;;;;;;;;15.30;95.80;;;;;;5067910;28;20063;-70
2022/04/12 08:30:58;;;;;;;;;;;15.50;95.60;;;;;;5067954;28;19953;-70
2022/04/12 08:33:26;;;;;;;;;;;15.80;95.60;;;;;;5075774;28;19960;-71
2022/04/12 08:35:53;;;;;;;;;;;16.00;95.40;;;;;;5070339;28;19942;-71
2022/04/12 08:38:20;;;;;;;;;;;16.10;95.30;;;;;;5077826;28;20569;-71
2022/04/12 08:40:47;;;;;;;;;;;16.30;94.90;;;;;;5071900;28;20018;-71
2022/04/12 08:43:14;;;;;;;;;;;16.40;95.00;;;;;;5080519;28;19993;-71
2022/04/12 08:45:45;;;;;;;;;;;16.70;94.70;;;;;;5082137;28;19948;-71
2022/04/12 08:48:12;;;;;;;;;;;16.80;94.60;;;;;;5050820;28;19968;-71
2022/04/12 08:50:39;;;;;;;;;;;16.80;94.20;;;;;;5066277;28;20004;-71
2022/04/12 08:53:09;;;;;;;;;;;16.80;94.30;;;;;;5067869;28;19952;-71
2022/04/12 08:55:36;;;;;;;;;;;16.90;94.40;;;;;;5072759;28;20002;-71
2022/04/12 08:58:02;;;;;;;;;;;17.10;94.30;;;;;;5067236;28;20454;-71
2022/04/12 09:00:29;;;;;;;;;;;17.10;94.10;;;;;;5070532;28;20041;-70
2022/04/12 09:02:59;;;;;;;;;;;17.00;94.00;;;;;;5071914;28;19952;-71
2022/04/12 09:05:26;;;;;;;;;;;17.10;94.20;;;;;;5060827;28;19970;-71
2022/04/12 09:07:52;;;;;;;;;;;17.10;94.00;;;;;;5058564;28;19955;-71
2022/04/12 09:10:25;;;;;;;;;;;17.10;93.80;;;;;;5069824;28;19962;-71
2022/04/12 09:12:52;;;;;;;;;;;17.10;93.70;;;;;;5075947;28;20518;-71
2022/04/12 09:15:19;;;;;;;;;;;17.30;93.70;;;;;;5069955;28;20050;-71
2022/04/12 09:17:48;;;;;;;;;;;17.40;93.60;;;;;;5071970;28;19940;-70
2022/04/12 09:20:16;;;;;;;;;;;17.60;93.20;;;;;;5065935;28;19950;-70
2022/04/12 09:22:43;;;;;;;;;;;17.70;92.70;;;;;;5074400;28;19941;-70
2022/04/12 09:25:10;;;;;;;;;;;17.80;92.40;;;;;;5081980;28;20365;-71
2022/04/12 09:27:39;;;;;;;;;;;17.80;91.90;;;;;;5068667;28;20000;-71
2022/04/12 09:30:08;;;;;;;;;;;17.80;91.90;;;;;;5067934;28;20080;-71
2022/04/12 09:32:36;;;;;;;;;;;18.10;91.60;;;;;;5077344;28;20024;-72
2022/04/12 09:35:03;;;;;;;;;;;18.20;91.10;;;;;;5063493;28;19965;-72
2022/04/12 09:37:31;;;;;;;;;;;18.30;91.30;;;;;;5055553;28;20012;-71
2022/04/12 09:40:07;;;;;;;;;;;18.50;90.80;;;;;;5070587;28;20343;-71
2022/04/12 09:42:39;;;;;;;;;;;18.70;91.00;;;;;;5067488;28;19953;-71
2022/04/12 09:45:06;;;;;;;;;;;19.00;90.40;;;;;;5082664;28;20009;-71
2022/04/12 09:47:33;;;;;;;;;;;18.90;89.90;;;;;;5075435;28;20011;-71
2022/04/12 09:50:00;;;;;;;;;;;19.00;90.10;;;;;;5071166;28;19969;-71
2022/04/12 09:52:27;;;;;;;;;;;19.20;90.00;;;;;;5084583;28;19940;-71
2022/04/12 09:54:53;;;;;;;;;;;19.40;89.90;;;;;;5063760;28;19957;-71
2022/04/12 09:57:20;;;;;;;;;;;19.40;89.30;;;;;;5063173;28;19940;-71
2022/04/12 09:59:48;;;;;;;;;;;19.60;89.80;;;;;;5067344;28;20499;-71
2022/04/12 10:02:15;;;;;;;;;;;19.70;89.10;;;;;;5074926;28;20430;-71
2022/04/12 10:04:43;;;;;;;;;;;19.90;88.80;;;;;;5066699;28;20339;-71
2022/04/12 10:07:10;;;;;;;;;;;20.20;88.40;;;;;;5072969;28;20029;-71
2022/04/12 10:09:38;;;;;;;;;;;20.20;88.30;;;;;;5065792;28;20552;-70
2022/04/12 10:12:05;;;;;;;;;;;20.20;87.40;;;;;;5068898;28;20373;-69
2022/04/12 10:14:32;;;;;;;;;;;20.20;87.60;;;;;;5071139;28;20403;-72
2022/04/12 10:17:01;;;;;;;;;;;20.20;87.20;;;;;;5074529;28;20396;-71
2022/04/12 10:19:27;;;;;;;;;;;20.30;87.80;;;;;;5067914;28;19963;-71
2022/04/12 10:21:54;;;;;;;;;;;20.30;88.10;;;;;;5067696;28;19943;-71
2022/04/12 10:24:21;;;;;;;;;;;20.40;89.90;;;;;;5076458;28;19977;-71
2022/04/12 10:26:48;;;;;;;;;;;20.70;88.60;;;;;;5075022;28;19953;-71
2022/04/12 10:29:15;;;;;;;;;;;21.00;88.20;;;;;;5066591;28;20550;-72
2022/04/12 10:31:53;;;;;;;;;;;21.00;88.70;;;;;;5075196;28;19971;-71
2022/04/12 10:34:21;;;;;;;;;;;21.10;88.50;;;;;;5074738;28;19998;-71
2022/04/12 10:36:56;;;;;;;;;;;21.40;88.80;;;;;;5073090;28;20073;-72
2022/04/12 10:39:26;;;;;;;;;;;21.50;88.10;;;;;;5070348;28;19972;-70
2022/04/12 10:41:55;;;;;;;;;;;21.60;86.80;;;;;;5070583;28;19949;-70
2022/04/12 10:44:22;;;;;;;;;;;21.60;85.50;;;;;;5080604;28;20046;-71
2022/04/12 10:46:50;;;;;;;;;;;21.60;85.70;;;;;;5071485;28;19959;-70
2022/04/12 10:49:18;;;;;;;;;;;21.60;86.10;;;;;;5072134;28;19965;-70
2022/04/12 10:51:46;;;;;;;;;;;21.70;85.60;;;;;;5068616;28;20471;-70
2022/04/12 10:54:27;;;;;;;;;;;21.80;85.10;;;;;;5070783;28;19947;-70
2022/04/12 10:57:09;;;;;;;;;;;22.10;84.80;;;;;;5078780;28;19983;-71
2022/04/12 10:59:39;;;;;;;;;;;22.30;83.60;;;;;;5069271;28;20343;-70
2022/04/12 11:02:11;;;;;;;;;;;22.20;82.60;;;;;;5078156;28;20396;-70
2022/04/12 11:04:37;;;;;;;;;;;22.40;81.70;;;;;;5075825;28;19974;-70
2022/04/12 11:07:08;;;;;;;;;;;22.80;79.60;;;;;;5069501;28;19935;-71
2022/04/12 11:09:34;;;;;;;;;;;22.70;77.40;;;;;;5074312;28;20063;-70
2022/04/12 11:12:03;;;;;;;;;;;22.60;78.00;;;;;;5071106;28;20338;-70
2022/04/12 11:14:32;;;;;;;;;;;22.80;77.20;;;;;;5070306;28;19993;-71
2022/04/12 11:17:00;;;;;;;;;;;23.00;77.50;;;;;;5076295;28;20043;-70
2022/04/12 11:19:26;;;;;;;;;;;22.90;77.40;;;;;;5072571;28;20314;-66
2022/04/12 11:21:58;;;;;;;;;;;22.80;78.10;;;;;;5067875;28;19986;-69
2022/04/12 11:24:26;;;;;;;;;;;23.00;78.40;;;;;;5066001;28;19948;-70
2022/04/12 11:27:01;;;;;;;;;;;23.20;77.60;;;;;;5070710;28;19947;-65
2022/04/12 11:29:28;;;;;;;;;;;23.60;77.30;;;;;;5063293;28;20508;-64
2022/04/12 11:31:56;;;;;;;;;;;23.90;76.80;;;;;;5066195;28;19939;-67
2022/04/12 11:34:25;;;;;;;;;;;24.10;75.40;;;;;;5072463;28;19957;-67
2022/04/12 11:36:52;;;;;;;;;;;24.30;75.40;;;;;;5074468;28;19946;-67
2022/04/12 11:39:19;;;;;;;;;;;24.60;75.00;;;;;;5075578;28;20613;-68
2022/04/12 11:41:47;;;;;;;;;;;24.60;74.50;;;;;;5079091;28;20050;-67
2022/04/12 11:44:14;;;;;;;;;;;24.70;73.90;;;;;;5068590;28;19960;-68
2022/04/12 11:46:40;;;;;;;;;;;24.80;74.20;;;;;;5057793;28;20004;-68
2022/04/12 11:49:07;;;;;;;;;;;25.50;73.70;;;;;;5075824;28;20168;-67
2022/04/12 11:51:38;;;;;;;;;;;25.70;72.50;;;;;;5060778;28;19946;-67
2022/04/12 11:54:18;;;;;;;;;;;25.50;72.10;;;;;;5091516;28;19958;-66
2022/04/12 11:56:47;;;;;;;;;;;26.40;71.20;;;;;;5070775;28;19951;-67
2022/04/12 11:59:13;;;;;;;;;;;26.90;70.40;;;;;;5074957;28;19960;-67
2022/04/12 12:01:40;;;;;;;;;;;27.10;68.90;;;;;;5070862;28;20442;-67
2022/04/12 12:04:07;;;;;;;;;;;27.30;69.00;;;;;;5074561;28;19954;-67
2022/04/12 12:06:33;;;;;;;;;;;27.20;67.80;;;;;;5064556;28;20538;-67
2022/04/12 12:09:00;;;;;;;;;;;27.70;67.90;;;;;;5071229;28;19977;-67
2022/04/12 12:11:27;;;;;;;;;;;28.70;66.30;;;;;;5068449;28;19973;-67
2022/04/12 12:13:58;;;;;;;;;;;29.70;64.20;;;;;;5073711;28;20032;-67
2022/04/12 12:16:24;;;;;;;;;;;29.00;63.00;;;;;;5076541;28;20277;-67
2022/04/12 12:18:51;;;;;;;;;;;28.40;63.40;;;;;;5069013;28;19971;-67
2022/04/12 12:21:18;;;;;;;;;;;28.10;62.70;;;;;;5068488;28;19949;-67
2022/04/12 12:23:45;;;;;;;;;;;28.40;61.80;;;;;;5070039;28;20044;-67
2022/04/12 12:26:12;;;;;;;;;;;27.80;62.10;;;;;;5067358;28;19953;-67
2022/04/12 12:28:40;;;;;;;;;;;28.40;61.70;;;;;;5081125;28;19964;-67
2022/04/12 12:31:08;;;;;;;;;;;28.10;61.70;;;;;;5071568;28;20632;-67
2022/04/12 12:33:38;;;;;;;;;;;28.20;61.40;;;;;;5074469;28;20013;-66
2022/04/12 12:36:16;;;;;;;;;;;27.40;61.80;;;;;;5074795;28;20024;-66
2022/04/12 12:38:43;;;;;;;;;;;27.00;61.80;;;;;;5066275;28;20078;-65
2022/04/12 12:41:10;;;;;;;;;;;26.20;62.70;;;;;;5067605;28;20370;-66
2022/04/12 12:43:36;;;;;;;;;;;25.50;63.40;;;;;;5086271;28;20332;-67
2022/04/12 12:46:06;;;;;;;;;;;24.80;64.10;;;;;;5076016;28;19939;-66
2022/04/12 12:48:33;;;;;;;;;;;24.30;65.30;;;;;;5074670;28;19966;-66
2022/04/12 12:51:03;;;;;;;;;;;24.20;66.30;;;;;;5073431;28;19981;-69
2022/04/12 12:53:30;;;;;;;;;;;24.50;67.00;;;;;;5071298;28;20018;-68
2022/04/12 12:55:57;;;;;;;;;;;24.70;67.10;;;;;;5072675;28;20026;-68
2022/04/12 12:58:29;;;;;;;;;;;24.40;65.60;;;;;;5069914;28;19965;-68
2022/04/12 13:01:01;;;;;;;;;;;24.20;66.00;;;;;;5070372;28;20488;-68
2022/04/12 13:03:28;;;;;;;;;;;23.70;66.00;;;;;;5081316;28;20042;-66
2022/04/12 13:05:57;;;;;;;;;;;23.80;66.70;;;;;;5065606;28;20290;-67
2022/04/12 13:08:24;;;;;;;;;;;24.00;68.10;;;;;;5069539;28;19967;-66
2022/04/12 13:10:51;;;;;;;;;;;24.60;66.40;;;;;;5067891;28;19961;-68
2022/04/12 13:13:17;;;;;;;;;;;25.10;65.60;;;;;;5075699;28;20044;-66
2022/04/12 13:15:44;;;;;;;;;;;25.80;65.20;;;;;;5070649;28;20088;-66
2022/04/12 13:20:43;;;;;;;;;;;27.20;64.40;;;;;;5070327;28;19975;-69
2022/04/12 13:23:11;;;;;;;;;;;28.00;63.20;;;;;;5077838;28;20001;-68
2022/04/12 13:25:37;;;;;;;;;;;28.30;62.40;;;;;;5074013;28;19963;-68
2022/04/12 13:28:04;;;;;;;;;;;28.50;62.40;;;;;;5078240;28;19942;-61
2022/04/12 13:30:30;;;;;;;;;;;28.40;61.60;;;;;;5081509;28;19965;-64
2022/04/12 13:32:57;;;;;;;;;;;28.80;62.40;;;;;;5089668;28;20464;-62
2022/04/12 13:35:23;;;;;;;;;;;29.30;61.30;;;;;;5090103;28;19951;-63
2022/04/12 13:37:51;;;;;;;;;;;29.20;60.50;;;;;;5089526;28;19947;-62
2022/04/12 13:40:19;;;;;;;;;;;29.00;60.30;;;;;;5076320;28;19974;-62
2022/04/12 13:42:46;;;;;;;;;;;28.50;60.40;;;;;;5083771;28;19986;-63
2022/04/12 13:45:13;;;;;;;;;;;28.60;60.80;;;;;;5090136;28;20354;-65
2022/04/12 13:47:40;;;;;;;;;;;28.60;60.80;;;;;;5088826;28;20034;-69
2022/04/12 13:50:07;;;;;;;;;;;28.90;60.50;;;;;;5082739;28;19969;-68
2022/04/12 13:52:33;;;;;;;;;;;29.30;59.50;;;;;;5085074;28;19948;-69
2022/04/12 13:55:00;;;;;;;;;;;28.80;59.90;;;;;;5088929;28;19941;-68
2022/04/12 13:57:28;;;;;;;;;;;29.10;59.30;;;;;;5085441;28;19941;-68
2022/04/12 13:59:54;;;;;;;;;;;29.50;59.30;;;;;;5087156;28;19952;-68
2022/04/12 14:02:21;;;;;;;;;;;29.50;58.90;;;;;;5088214;28;20131;-68
2022/04/12 14:04:48;;;;;;;;;;;29.20;58.60;;;;;;5088651;28;20163;-68
2022/04/12 14:07:15;;;;;;;;;;;28.30;58.90;;;;;;5088477;28;19943;-69
2022/04/12 14:09:41;;;;;;;;;;;28.10;59.40;;;;;;5087984;28;20353;-69
2022/04/12 14:12:08;;;;;;;;;;;27.90;59.80;;;;;;5086284;28;19961;-69
2022/04/12 14:14:36;;;;;;;;;;;28.30;59.80;;;;;;5078150;28;20003;-69
2022/04/12 14:17:02;;;;;;;;;;;29.00;59.60;;;;;;5088435;28;20447;-68
2022/04/12 14:19:29;;;;;;;;;;;29.40;59.30;;;;;;5084203;28;20503;-69
2022/04/12 14:21:56;;;;;;;;;;;29.80;58.70;;;;;;5088226;28;19958;-68
2022/04/12 14:24:23;;;;;;;;;;;29.70;58.40;;;;;;5088017;28;20522;-68
2022/04/12 14:26:49;;;;;;;;;;;28.80;58.70;;;;;;5088751;28;19947;-68